sensor_id;sensor_type;location;lat;lon;timestamp;pressure;altitude;pressure_sealevel;temperature;humidity
46836;BME280;32573;51.290;6.926;2023-05-21T00:00:33;100292.69;;;15.00;100.00
46836;BME280;32573;51.290;6.926;2023-05-21T00:03:03;100286.50;;;15.00;100.00
46836;BME280;32573;51.290;6.926;2023-05-21T00:05:32;100285.63;;;14.99;100.00
46836;BME280;32573;51.290;6.926;2023-05-21T00:08:01;100277.72;;;14.98;100.00
46836;BME280;32573;51.290;6.926;2023-05-21T00:10:29;100286.47;;;14.97;100.00
46836;BME280;32573;51.290;6.926;2023-05-21T00:12:58;100287.31;;;14.94;100.00
46836;BME280;32573;51.290;6.926;2023-05-21T00:15:26;100278.50;;;14.92;100.00
46836;BME280;32573;51.290;6.926;2023-05-21T00:17:55;100268.81;;;14.89;100.00
46836;BME280;32573;51.290;6.926;2023-05-21T00:20:25;100270.53;;;14.87;100.00
46836;BME280;32573;51.290;6.926;2023-05-21T00:22:55;100265.25;;;14.86;100.00
46836;BME280;32573;51.290;6.926;2023-05-21T00:25:24;100267.88;;;14.83;100.00
46836;BME280;32573;51.290;6.926;2023-05-21T00:27:53;100259.94;;;14.81;100.00
46836;BME280;32573;51.290;6.926;2023-05-21T00:30:22;100259.91;;;14.78;100.00
46836;BME280;32573;51.290;6.926;2023-05-21T00:32:51;100274.81;;;14.76;100.00
46836;BME280;32573;51.290;6.926;2023-05-21T00:35:19;100263.34;;;14.74;100.00
46836;BME280;32573;51.290;6.926;2023-05-21T00:37:50;100258.06;;;14.71;100.00
46836;BME280;32573;51.290;6.926;2023-05-21T00:40:20;100265.03;;;14.69;100.00
46836;BME280;32573;51.290;6.926;2023-05-21T00:42:48;100265.00;;;14.66;100.00
46836;BME280;32573;51.290;6.926;2023-05-21T00:45:18;100258.88;;;14.65;100.00
46836;BME280;32573;51.290;6.926;2023-05-21T00:47:46;100264.97;;;14.63;100.00
46836;BME280;32573;51.290;6.926;2023-05-21T00:50:15;100260.56;;;14.62;100.00
46836;BME280;32573;51.290;6.926;2023-05-21T00:52:44;100254.38;;;14.60;100.00
46836;BME280;32573;51.290;6.926;2023-05-21T00:55:14;100257.00;;;14.58;100.00
46836;BME280;32573;51.290;6.926;2023-05-21T00:57:44;100257.88;;;14.56;100.00
46836;BME280;32573;51.290;6.926;2023-05-21T01:00:13;100257.81;;;14.54;100.00
46836;BME280;32573;51.290;6.926;2023-05-21T01:02:42;100261.28;;;14.52;100.00
46836;BME280;32573;51.290;6.926;2023-05-21T01:05:11;100255.09;;;14.50;100.00
46836;BME280;32573;51.290;6.926;2023-05-21T01:07:41;100258.56;;;14.47;100.00
46836;BME280;32573;51.290;6.926;2023-05-21T01:10:10;100254.19;;;14.46;100.00
46836;BME280;32573;51.290;6.926;2023-05-21T01:12:43;100256.78;;;14.44;100.00
46836;BME280;32573;51.290;6.926;2023-05-21T01:15:11;100247.09;;;14.42;100.00
46836;BME280;32573;51.290;6.926;2023-05-21T01:17:40;100248.84;;;14.41;100.00
46836;BME280;32573;51.290;6.926;2023-05-21T01:20:13;100245.31;;;14.39;100.00
46836;BME280;32573;51.290;6.926;2023-05-21T01:22:51;100244.38;;;14.37;100.00
46836;BME280;32573;51.290;6.926;2023-05-21T01:25:20;100242.63;;;14.36;100.00
46836;BME280;32573;51.290;6.926;2023-05-21T01:27:49;100242.59;;;14.35;100.00
46836;BME280;32573;51.290;6.926;2023-05-21T01:30:19;100245.22;;;14.33;100.00
46836;BME280;32573;51.290;6.926;2023-05-21T01:32:55;100243.44;;;14.32;100.00
46836;BME280;32573;51.290;6.926;2023-05-21T01:35:28;100239.03;;;14.30;100.00
46836;BME280;32573;51.290;6.926;2023-05-21T01:38:11;100231.13;;;14.28;100.00
46836;BME280;32573;51.290;6.926;2023-05-21T01:40:46;100232.84;;;14.26;100.00
46836;BME280;32573;51.290;6.926;2023-05-21T01:43:17;100231.06;;;14.25;100.00
46836;BME280;32573;51.290;6.926;2023-05-21T01:45:47;100224.91;;;14.23;100.00
46836;BME280;32573;51.290;6.926;2023-05-21T01:48:21;100224.91;;;14.23;100.00
46836;BME280;32573;51.290;6.926;2023-05-21T01:50:51;100223.13;;;14.20;100.00
46836;BME280;32573;51.290;6.926;2023-05-21T01:53:22;100225.72;;;14.19;100.00
46836;BME280;32573;51.290;6.926;2023-05-21T01:55:51;100227.44;;;14.17;100.00
46836;BME280;32573;51.290;6.926;2023-05-21T01:58:20;100225.69;;;14.16;100.00
46836;BME280;32573;51.290;6.926;2023-05-21T02:00:50;100227.41;;;14.14;100.00
46836;BME280;32573;51.290;6.926;2023-05-21T02:03:19;100225.63;;;14.13;100.00
46836;BME280;32573;51.290;6.926;2023-05-21T02:05:49;100226.44;;;14.10;100.00
46836;BME280;32573;51.290;6.926;2023-05-21T02:08:18;100215.03;;;14.10;100.00
46836;BME280;32573;51.290;6.926;2023-05-21T02:10:51;100217.69;;;14.08;100.00
46836;BME280;32573;51.290;6.926;2023-05-21T02:13:19;100220.28;;;14.07;100.00
46836;BME280;32573;51.290;6.926;2023-05-21T02:15:52;100221.16;;;14.06;100.00
46836;BME280;32573;51.290;6.926;2023-05-21T02:18:23;100221.13;;;14.04;100.00
46836;BME280;32573;51.290;6.926;2023-05-21T02:20:52;100215.81;;;14.02;100.00
46836;BME280;32573;51.290;6.926;2023-05-21T02:23:21;100209.66;;;14.00;100.00
46836;BME280;32573;51.290;6.926;2023-05-21T02:25:51;100215.78;;;13.99;100.00
46836;BME280;32573;51.290;6.926;2023-05-21T02:28:19;100221.91;;;13.98;100.00
46836;BME280;32573;51.290;6.926;2023-05-21T02:30:48;100220.13;;;13.97;100.00
46836;BME280;32573;51.290;6.926;2023-05-21T02:33:17;100212.22;;;13.96;100.00
46836;BME280;32573;51.290;6.926;2023-05-21T02:35:46;100219.25;;;13.95;100.00
46836;BME280;32573;51.290;6.926;2023-05-21T02:38:15;100218.34;;;13.93;100.00
46836;BME280;32573;51.290;6.926;2023-05-21T02:40:45;100219.19;;;13.92;100.00
46836;BME280;32573;51.290;6.926;2023-05-21T02:43:15;100210.38;;;13.90;100.00
46836;BME280;32573;51.290;6.926;2023-05-21T02:45:45;100211.25;;;13.89;100.00
46836;BME280;32573;51.290;6.926;2023-05-21T02:48:14;100207.69;;;13.87;100.00
46836;BME280;32573;51.290;6.926;2023-05-21T02:50:46;100208.56;;;13.86;100.00
46836;BME280;32573;51.290;6.926;2023-05-21T02:53:15;100210.28;;;13.84;100.00
46836;BME280;32573;51.290;6.926;2023-05-21T02:55:44;100209.38;;;13.82;100.00
46836;BME280;32573;51.290;6.926;2023-05-21T02:58:12;100198.84;;;13.82;100.00
46836;BME280;32573;51.290;6.926;2023-05-21T03:00:43;100204.06;;;13.79;100.00
46836;BME280;32573;51.290;6.926;2023-05-21T03:03:11;100201.41;;;13.77;100.00
46836;BME280;32573;51.290;6.926;2023-05-21T03:05:41;100196.97;;;13.75;100.00
46836;BME280;32573;51.290;6.926;2023-05-21T03:08:09;100197.88;;;13.75;100.00
46836;BME280;32573;51.290;6.926;2023-05-21T03:10:39;100198.72;;;13.73;100.00
46836;BME280;32573;51.290;6.926;2023-05-21T03:13:07;100191.69;;;13.72;100.00
46836;BME280;32573;51.290;6.926;2023-05-21T03:15:37;100195.19;;;13.71;100.00
46836;BME280;32573;51.290;6.926;2023-05-21T03:18:07;100186.38;;;13.69;100.00
46836;BME280;32573;51.290;6.926;2023-05-21T03:20:36;100193.34;;;13.67;100.00
46836;BME280;32573;51.290;6.926;2023-05-21T03:23:09;100192.47;;;13.66;100.00
46836;BME280;32573;51.290;6.926;2023-05-21T03:25:42;100195.94;;;13.64;100.00
46836;BME280;32573;51.290;6.926;2023-05-21T03:28:12;100197.69;;;13.65;100.00
46836;BME280;32573;51.290;6.926;2023-05-21T03:30:45;100187.19;;;13.63;100.00
46836;BME280;32573;51.290;6.926;2023-05-21T03:33:43;100188.00;;;13.61;100.00
46836;BME280;32573;51.290;6.926;2023-05-21T03:36:24;100184.50;;;13.62;100.00
46836;BME280;32573;51.290;6.926;2023-05-21T03:38:52;100192.34;;;13.60;100.00
46836;BME280;32573;51.290;6.926;2023-05-21T03:41:21;100195.88;;;13.59;100.00
46836;BME280;32573;51.290;6.926;2023-05-21T03:43:55;100189.69;;;13.57;100.00
46836;BME280;32573;51.290;6.926;2023-05-21T03:46:28;100200.22;;;13.57;100.00
46836;BME280;32573;51.290;6.926;2023-05-21T03:49:06;100199.34;;;13.56;100.00
46836;BME280;32573;51.290;6.926;2023-05-21T03:51:37;100189.69;;;13.55;100.00
46836;BME280;32573;51.290;6.926;2023-05-21T03:54:08;100195.78;;;13.54;100.00
46836;BME280;32573;51.290;6.926;2023-05-21T03:56:37;100187.91;;;13.54;100.00
46836;BME280;32573;51.290;6.926;2023-05-21T03:59:05;100194.88;;;13.52;100.00
46836;BME280;32573;51.290;6.926;2023-05-21T04:01:35;100187.84;;;13.51;100.00
46836;BME280;32573;51.290;6.926;2023-05-21T04:04:08;100188.72;;;13.52;100.00
46836;BME280;32573;51.290;6.926;2023-05-21T04:06:37;100185.22;;;13.51;100.00
46836;BME280;32573;51.290;6.926;2023-05-21T04:09:09;100193.13;;;13.51;100.00
46836;BME280;32573;51.290;6.926;2023-05-21T04:11:38;100196.63;;;13.52;100.00
46836;BME280;32573;51.290;6.926;2023-05-21T04:14:07;100189.59;;;13.52;100.00
46836;BME280;32573;51.290;6.926;2023-05-21T04:16:35;100193.16;;;13.53;100.00
46836;BME280;32573;51.290;6.926;2023-05-21T04:19:05;100198.38;;;13.51;100.00
46836;BME280;32573;51.290;6.926;2023-05-21T04:21:35;100186.97;;;13.51;100.00
46836;BME280;32573;51.290;6.926;2023-05-21T04:24:05;100198.38;;;13.51;100.00
46836;BME280;32573;51.290;6.926;2023-05-21T04:26:59;100200.13;;;13.51;100.00
46836;BME280;32573;51.290;6.926;2023-05-21T04:29:30;100200.13;;;13.52;100.00
46836;BME280;32573;51.290;6.926;2023-05-21T04:32:00;100196.66;;;13.53;100.00
46836;BME280;32573;51.290;6.926;2023-05-21T04:34:29;100198.41;;;13.54;100.00
46836;BME280;32573;51.290;6.926;2023-05-21T04:37:02;100194.91;;;13.54;100.00
46836;BME280;32573;51.290;6.926;2023-05-21T04:39:31;100195.78;;;13.54;100.00
46836;BME280;32573;51.290;6.926;2023-05-21T04:42:00;100189.66;;;13.54;100.00
46836;BME280;32573;51.290;6.926;2023-05-21T04:44:29;100201.09;;;13.56;100.00
46836;BME280;32573;51.290;6.926;2023-05-21T04:46:59;100199.34;;;13.56;100.00
46836;BME280;32573;51.290;6.926;2023-05-21T04:49:28;100193.19;;;13.57;100.00
46836;BME280;32573;51.290;6.926;2023-05-21T04:51:57;100199.38;;;13.59;100.00
46836;BME280;32573;51.290;6.926;2023-05-21T04:54:27;100196.75;;;13.59;100.00
46836;BME280;32573;51.290;6.926;2023-05-21T04:56:56;100188.00;;;13.61;100.00
46836;BME280;32573;51.290;6.926;2023-05-21T04:59:24;100194.16;;;13.61;100.00
46836;BME280;32573;51.290;6.926;2023-05-21T05:01:53;100205.53;;;13.62;100.00
46836;BME280;32573;51.290;6.926;2023-05-21T05:04:22;100199.41;;;13.63;100.00
46836;BME280;32573;51.290;6.926;2023-05-21T05:06:51;100188.94;;;13.64;100.00
46836;BME280;32573;51.290;6.926;2023-05-21T05:09:20;100202.13;;;13.66;100.00
46836;BME280;32573;51.290;6.926;2023-05-21T05:11:53;100189.84;;;13.68;100.00
46836;BME280;32573;51.290;6.926;2023-05-21T05:14:22;100201.28;;;13.68;100.00
46836;BME280;32573;51.290;6.926;2023-05-21T05:16:50;100196.91;;;13.69;100.00
46836;BME280;32573;51.290;6.926;2023-05-21T05:19:20;100189.91;;;13.71;100.00
46836;BME280;32573;51.290;6.926;2023-05-21T05:21:49;100198.72;;;13.73;100.00
46836;BME280;32573;51.290;6.926;2023-05-21T05:24:19;100189.97;;;13.74;100.00
46836;BME280;32573;51.290;6.926;2023-05-21T05:26:48;100197.91;;;13.77;100.00
46836;BME280;32573;51.290;6.926;2023-05-21T05:29:18;100194.44;;;13.79;100.00
46836;BME280;32573;51.290;6.926;2023-05-21T05:31:47;100196.22;;;13.82;100.00
46836;BME280;32573;51.290;6.926;2023-05-21T05:34:16;100191.00;;;13.84;100.00
46836;BME280;32573;51.290;6.926;2023-05-21T05:36:44;100188.38;;;13.85;100.00
46836;BME280;32573;51.290;6.926;2023-05-21T05:39:13;100196.31;;;13.88;100.00
46836;BME280;32573;51.290;6.926;2023-05-21T05:41:42;100191.94;;;13.90;100.00
46836;BME280;32573;51.290;6.926;2023-05-21T05:44:10;100188.47;;;13.91;100.00
46836;BME280;32573;51.290;6.926;2023-05-21T05:46:41;100188.47;;;13.91;100.00
46836;BME280;32573;51.290;6.926;2023-05-21T05:49:11;100194.66;;;13.93;100.00
46836;BME280;32573;51.290;6.926;2023-05-21T05:51:41;100191.19;;;13.96;100.00
46836;BME280;32573;51.290;6.926;2023-05-21T05:54:10;100189.41;;;13.96;100.00
46836;BME280;32573;51.290;6.926;2023-05-21T05:56:38;100188.56;;;13.99;100.00
46836;BME280;32573;51.290;6.926;2023-05-21T05:59:07;100192.13;;;14.01;100.00
46836;BME280;32573;51.290;6.926;2023-05-21T06:01:38;100196.50;;;14.02;100.00
46836;BME280;32573;51.290;6.926;2023-05-21T06:04:10;100189.53;;;14.04;100.00
46836;BME280;32573;51.290;6.926;2023-05-21T06:06:38;100186.94;;;14.06;100.00
46836;BME280;32573;51.290;6.926;2023-05-21T06:09:08;100184.28;;;14.07;100.00
46836;BME280;32573;51.290;6.926;2023-05-21T06:11:37;100191.34;;;14.10;100.00
46836;BME280;32573;51.290;6.926;2023-05-21T06:14:06;100187.00;;;14.12;100.00
46836;BME280;32573;51.290;6.926;2023-05-21T06:16:34;100192.31;;;14.15;100.00
46836;BME280;32573;51.290;6.926;2023-05-21T06:19:03;100187.06;;;14.16;100.00
46836;BME280;32573;51.290;6.926;2023-05-21T06:21:33;100195.00;;;14.18;100.00
46836;BME280;32573;51.290;6.926;2023-05-21T06:24:05;100194.16;;;14.22;100.00
46836;BME280;32573;51.290;6.926;2023-05-21T06:26:33;100187.16;;;14.24;100.00
46836;BME280;32573;51.290;6.926;2023-05-21T06:29:03;100186.31;;;14.27;100.00
46836;BME280;32573;51.290;6.926;2023-05-21T06:31:31;100180.22;;;14.29;100.00
46836;BME280;32573;51.290;6.926;2023-05-21T06:34:00;100178.50;;;14.31;100.00
46836;BME280;32573;51.290;6.926;2023-05-21T06:36:30;100173.25;;;14.34;100.00
46836;BME280;32573;51.290;6.926;2023-05-21T06:39:00;100175.91;;;14.37;100.00
46836;BME280;32573;51.290;6.926;2023-05-21T06:41:30;100175.97;;;14.40;100.00
46836;BME280;32573;51.290;6.926;2023-05-21T06:44:03;100175.13;;;14.43;100.00
46836;BME280;32573;51.290;6.926;2023-05-21T06:46:40;100171.66;;;14.45;100.00
46836;BME280;32573;51.290;6.926;2023-05-21T06:49:10;100172.56;;;14.49;100.00
46836;BME280;32573;51.290;6.926;2023-05-21T06:51:41;100163.78;;;14.50;100.00
46836;BME280;32573;51.290;6.926;2023-05-21T06:54:13;100168.22;;;14.53;100.00
46836;BME280;32573;51.290;6.926;2023-05-21T06:56:42;100173.56;;;14.56;100.00
46836;BME280;32573;51.290;6.926;2023-05-21T06:59:11;100164.81;;;14.60;100.00
46836;BME280;32573;51.290;6.926;2023-05-21T07:01:39;100173.66;;;14.65;100.00
46836;BME280;32573;51.290;6.926;2023-05-21T07:04:10;100170.19;;;14.69;100.00
46836;BME280;32573;51.290;6.926;2023-05-21T07:06:40;100176.41;;;14.73;100.00
46836;BME280;32573;51.290;6.926;2023-05-21T07:09:09;100175.56;;;14.78;100.00
46836;BME280;32573;51.290;6.926;2023-05-21T07:11:40;100178.25;;;14.83;100.00
46836;BME280;32573;51.290;6.926;2023-05-21T07:14:09;100178.28;;;14.87;100.00
46836;BME280;32573;51.290;6.926;2023-05-21T07:16:38;100179.25;;;14.93;100.00
46836;BME280;32573;51.290;6.926;2023-05-21T07:19:07;100172.28;;;14.98;100.00
46836;BME280;32573;51.290;6.926;2023-05-21T07:21:38;100179.31;;;15.02;100.00
46836;BME280;32573;51.290;6.926;2023-05-21T07:24:07;100172.34;;;15.07;100.00
46836;BME280;32573;51.290;6.926;2023-05-21T07:26:40;100181.19;;;15.12;100.00
46836;BME280;32573;51.290;6.926;2023-05-21T07:29:10;100185.59;;;15.15;100.00
46836;BME280;32573;51.290;6.926;2023-05-21T07:31:40;100184.75;;;15.17;100.00
46836;BME280;32573;51.290;6.926;2023-05-21T07:34:09;100179.53;;;15.20;100.00
46836;BME280;32573;51.290;6.926;2023-05-21T07:36:40;100187.44;;;15.25;100.00
46836;BME280;32573;51.290;6.926;2023-05-21T07:39:09;100184.84;;;15.26;100.00
46836;BME280;32573;51.290;6.926;2023-05-21T07:41:39;100174.31;;;15.29;100.00
46836;BME280;32573;51.290;6.926;2023-05-21T07:44:09;100184.94;;;15.36;100.00
46836;BME280;32573;51.290;6.926;2023-05-21T07:46:41;100177.06;;;15.40;100.00
46836;BME280;32573;51.290;6.926;2023-05-21T07:49:11;100186.78;;;15.46;100.00
46836;BME280;32573;51.290;6.926;2023-05-21T07:51:44;100188.59;;;15.53;100.00
46836;BME280;32573;51.290;6.926;2023-05-21T07:54:14;100184.22;;;15.60;100.00
46836;BME280;32573;51.290;6.926;2023-05-21T07:56:45;100185.16;;;15.66;100.00
46836;BME280;32573;51.290;6.926;2023-05-21T07:59:31;100187.00;;;15.73;100.00
46836;BME280;32573;51.290;6.926;2023-05-21T08:02:00;100187.09;;;15.83;100.00
46836;BME280;32573;51.290;6.926;2023-05-21T08:04:29;100187.13;;;15.89;100.00
46836;BME280;32573;51.290;6.926;2023-05-21T08:06:58;100186.28;;;15.96;100.00
46836;BME280;32573;51.290;6.926;2023-05-21T08:09:27;100180.16;;;16.03;100.00
46836;BME280;32573;51.290;6.926;2023-05-21T08:11:58;100185.47;;;16.12;100.00
46836;BME280;32573;51.290;6.926;2023-05-21T08:14:27;100183.78;;;16.22;100.00
46836;BME280;32573;51.290;6.926;2023-05-21T08:16:56;100196.16;;;16.29;100.00
46836;BME280;32573;51.290;6.926;2023-05-21T08:19:25;100184.75;;;16.38;100.00
46836;BME280;32573;51.290;6.926;2023-05-21T08:21:54;100192.69;;;16.47;100.00
46836;BME280;32573;51.290;6.926;2023-05-21T08:24:24;100200.69;;;16.56;100.00
46836;BME280;32573;51.290;6.926;2023-05-21T08:26:53;100200.72;;;16.63;100.00
46836;BME280;32573;51.290;6.926;2023-05-21T08:29:23;100198.09;;;16.69;100.00
46836;BME280;32573;51.290;6.926;2023-05-21T08:31:53;100194.59;;;16.77;100.00
46836;BME280;32573;51.290;6.926;2023-05-21T08:34:22;100195.53;;;16.84;100.00
46836;BME280;32573;51.290;6.926;2023-05-21T08:37:01;100197.31;;;16.93;100.00
46836;BME280;32573;51.290;6.926;2023-05-21T08:39:50;100202.59;;;17.02;100.00
46836;BME280;32573;51.290;6.926;2023-05-21T08:42:29;100198.22;;;17.09;100.00
46836;BME280;32573;51.290;6.926;2023-05-21T08:45:06;100201.75;;;17.17;100.00
46836;BME280;32573;51.290;6.926;2023-05-21T08:47:36;100193.84;;;17.23;100.00
46836;BME280;32573;51.290;6.926;2023-05-21T08:50:09;100197.38;;;17.31;100.00
46836;BME280;32573;51.290;6.926;2023-05-21T08:52:38;100191.22;;;17.38;100.00
46836;BME280;32573;51.290;6.926;2023-05-21T08:55:08;100189.44;;;17.46;100.00
46836;BME280;32573;51.290;6.926;2023-05-21T08:57:41;100189.47;;;17.53;100.00
46836;BME280;32573;51.290;6.926;2023-05-21T09:00:16;100187.69;;;17.61;100.00
46836;BME280;32573;51.290;6.926;2023-05-21T09:02:47;100176.22;;;17.68;100.00
46836;BME280;32573;51.290;6.926;2023-05-21T09:05:22;100186.78;;;17.74;100.00
46836;BME280;32573;51.290;6.926;2023-05-21T09:07:58;100175.34;;;17.81;100.00
46836;BME280;32573;51.290;6.926;2023-05-21T09:10:52;100181.50;;;17.88;100.00
46836;BME280;32573;51.290;6.926;2023-05-21T09:13:26;100173.56;;;17.96;100.00
46836;BME280;32573;51.290;6.926;2023-05-21T09:15:57;100174.44;;;18.02;100.00
46836;BME280;32573;51.290;6.926;2023-05-21T09:18:27;100161.16;;;18.10;100.00
46836;BME280;32573;51.290;6.926;2023-05-21T09:21:22;100162.91;;;18.17;100.00
46836;BME280;32573;51.290;6.926;2023-05-21T09:23:55;100166.41;;;18.19;100.00
46836;BME280;32573;51.290;6.926;2023-05-21T09:26:25;100159.31;;;18.24;100.00
46836;BME280;32573;51.290;6.926;2023-05-21T09:28:59;100161.09;;;18.28;100.00
46836;BME280;32573;51.290;6.926;2023-05-21T09:31:30;100149.59;;;18.32;100.00
46836;BME280;32573;51.290;6.926;2023-05-21T09:34:00;100149.56;;;18.40;100.00
46836;BME280;32573;51.290;6.926;2023-05-21T09:36:31;100141.56;;;18.48;100.00
46836;BME280;32573;51.290;6.926;2023-05-21T09:39:01;100147.72;;;18.56;100.00
46836;BME280;32573;51.290;6.926;2023-05-21T09:41:32;100141.50;;;18.63;100.00
46836;BME280;32573;51.290;6.926;2023-05-21T09:44:05;100150.28;;;18.71;100.00
46836;BME280;32573;51.290;6.926;2023-05-21T09:46:40;100145.88;;;18.80;100.00
46836;BME280;32573;51.290;6.926;2023-05-21T09:49:21;100142.25;;;18.88;100.00
46836;BME280;32573;51.290;6.926;2023-05-21T09:51:54;100142.22;;;18.98;100.00
46836;BME280;32573;51.290;6.926;2023-05-21T09:54:23;100143.03;;;19.07;100.00
46836;BME280;32573;51.290;6.926;2023-05-21T09:56:52;100141.19;;;19.15;100.00
46836;BME280;32573;51.290;6.926;2023-05-21T09:59:21;100134.06;;;19.21;100.00
46836;BME280;32573;51.290;6.926;2023-05-21T10:01:51;100137.56;;;19.26;100.00
46836;BME280;32573;51.290;6.926;2023-05-21T10:04:22;100135.75;;;19.31;100.00
46836;BME280;32573;51.290;6.926;2023-05-21T10:06:51;100141.94;;;19.33;100.00
46836;BME280;32573;51.290;6.926;2023-05-21T10:09:20;100138.38;;;19.35;100.00
46836;BME280;32573;51.290;6.926;2023-05-21T10:11:52;100135.72;;;19.37;100.00
46836;BME280;32573;51.290;6.926;2023-05-21T10:14:24;100130.41;;;19.37;100.00
46836;BME280;32573;51.290;6.926;2023-05-21T10:16:56;100127.72;;;19.40;100.00
46836;BME280;32573;51.290;6.926;2023-05-21T10:19:27;100133.91;;;19.42;100.00
46836;BME280;32573;51.290;6.926;2023-05-21T10:21:59;100134.75;;;19.47;100.00
46836;BME280;32573;51.290;6.926;2023-05-21T10:24:28;100135.59;;;19.49;100.00
46836;BME280;32573;51.290;6.926;2023-05-21T10:26:57;100126.72;;;19.53;100.00
46836;BME280;32573;51.290;6.926;2023-05-21T10:29:26;100128.44;;;19.57;100.00
46836;BME280;32573;51.290;6.926;2023-05-21T10:31:58;100123.97;;;19.63;100.00
46836;BME280;32573;51.290;6.926;2023-05-21T10:34:28;100137.22;;;19.69;100.00
46836;BME280;32573;51.290;6.926;2023-05-21T10:37:00;100122.97;;;19.74;100.00
46836;BME280;32573;51.290;6.926;2023-05-21T10:39:30;100109.66;;;19.80;100.00
46836;BME280;32573;51.290;6.926;2023-05-21T10:42:07;100113.13;;;19.86;100.00
46836;BME280;32573;51.290;6.926;2023-05-21T10:44:48;100112.22;;;19.88;100.00
46836;BME280;32573;51.290;6.926;2023-05-21T10:47:36;100101.50;;;19.94;100.00
46836;BME280;32573;51.290;6.926;2023-05-21T10:50:20;100109.38;;;20.03;100.00
46836;BME280;32573;51.290;6.926;2023-05-21T10:53:00;100108.38;;;20.14;100.00
46836;BME280;32573;51.290;6.926;2023-05-21T10:55:45;100098.50;;;20.23;100.00
46836;BME280;32573;51.290;6.926;2023-05-21T10:58:42;100095.69;;;20.34;100.00
46836;BME280;32573;51.290;6.926;2023-05-21T11:01:16;100095.53;;;20.46;100.00
46836;BME280;32573;51.290;6.926;2023-05-21T11:03:48;100097.13;;;20.63;100.00
46836;BME280;32573;51.290;6.926;2023-05-21T11:06:22;100088.00;;;20.81;100.00
46836;BME280;32573;51.290;6.926;2023-05-21T11:08:52;100094.00;;;20.94;100.00
46836;BME280;32573;51.290;6.926;2023-05-21T11:11:43;100093.81;;;21.06;100.00
46836;BME280;32573;51.290;6.926;2023-05-21T11:14:26;100088.34;;;21.15;100.00
46836;BME280;32573;51.290;6.926;2023-05-21T11:16:55;100089.09;;;21.23;100.00
46836;BME280;32573;51.290;6.926;2023-05-21T11:19:33;100088.84;;;21.37;100.00
46836;BME280;32573;51.290;6.926;2023-05-21T11:22:18;100082.44;;;21.50;100.00
46836;BME280;32573;51.290;6.926;2023-05-21T11:24:48;100093.78;;;21.60;100.00
46836;BME280;32573;51.290;6.926;2023-05-21T11:27:34;100092.66;;;21.73;100.00
46836;BME280;32573;51.290;6.926;2023-05-21T11:30:07;100088.91;;;21.84;100.00
46836;BME280;32573;51.290;6.926;2023-05-21T11:32:37;100083.41;;;21.91;100.00
46836;BME280;32573;51.290;6.926;2023-05-21T11:35:12;100094.84;;;21.98;100.00
46836;BME280;32573;51.290;6.926;2023-05-21T11:37:41;100086.75;;;22.04;100.00
46836;BME280;32573;51.290;6.926;2023-05-21T11:40:16;100083.94;;;22.09;100.00
46836;BME280;32573;51.290;6.926;2023-05-21T11:42:50;100082.19;;;22.09;100.00
46836;BME280;32573;51.290;6.926;2023-05-21T11:45:20;100088.34;;;22.11;100.00
46836;BME280;32573;51.290;6.926;2023-05-21T11:47:49;100098.06;;;22.14;100.00
46836;BME280;32573;51.290;6.926;2023-05-21T11:50:21;100090.91;;;22.16;100.00
46836;BME280;32573;51.290;6.926;2023-05-21T11:52:50;100084.63;;;22.18;100.00
46836;BME280;32573;51.290;6.926;2023-05-21T11:55:23;100086.38;;;22.23;100.00
46836;BME280;32573;51.290;6.926;2023-05-21T11:57:53;100086.22;;;22.30;100.00
46836;BME280;32573;51.290;6.926;2023-05-21T12:00:22;100085.19;;;22.36;100.00
46836;BME280;32573;51.290;6.926;2023-05-21T12:02:51;100087.66;;;22.45;100.00
46836;BME280;32573;51.290;6.926;2023-05-21T12:05:24;100083.97;;;22.51;100.00
46836;BME280;32573;51.290;6.926;2023-05-21T12:07:53;100074.06;;;22.57;100.00
46836;BME280;32573;51.290;6.926;2023-05-21T12:10:22;100076.63;;;22.62;100.00
46836;BME280;32573;51.290;6.926;2023-05-21T12:12:51;100080.94;;;22.68;100.00
46836;BME280;32573;51.290;6.926;2023-05-21T12:15:24;100080.84;;;22.71;100.00
46836;BME280;32573;51.290;6.926;2023-05-21T12:17:54;100073.56;;;22.79;100.00
46836;BME280;32573;51.290;6.926;2023-05-21T12:20:28;100076.06;;;22.87;100.00
46836;BME280;32573;51.290;6.926;2023-05-21T12:22:56;100060.91;;;22.87;100.00
46836;BME280;32573;51.290;6.926;2023-05-21T12:25:28;100066.25;;;22.86;100.00
46836;BME280;32573;51.290;6.926;2023-05-21T12:27:59;100059.38;;;22.77;100.00
46836;BME280;32573;51.290;6.926;2023-05-21T12:30:29;100060.22;;;22.79;100.00
46836;BME280;32573;51.290;6.926;2023-05-21T12:32:58;100055.75;;;22.79;100.00
46836;BME280;32573;51.290;6.926;2023-05-21T12:35:30;100069.00;;;22.84;100.00
46836;BME280;32573;51.290;6.926;2023-05-21T12:38:00;100067.03;;;22.91;100.00
46836;BME280;32573;51.290;6.926;2023-05-21T12:40:34;100058.63;;;23.08;100.00
46836;BME280;32573;51.290;6.926;2023-05-21T12:43:05;100072.44;;;23.25;100.00
46836;BME280;32573;51.290;6.926;2023-05-21T12:45:34;100063.19;;;23.38;100.00
46836;BME280;32573;51.290;6.926;2023-05-21T12:48:05;100064.66;;;23.50;100.00
46836;BME280;32573;51.290;6.926;2023-05-21T12:50:39;100053.59;;;23.64;100.00
46836;BME280;32573;51.290;6.926;2023-05-21T12:53:08;100039.91;;;23.76;100.00
46836;BME280;32573;51.290;6.926;2023-05-21T12:55:38;100044.88;;;23.90;100.00
46836;BME280;32573;51.290;6.926;2023-05-21T12:58:12;100037.25;;;24.06;100.00
46836;BME280;32573;51.290;6.926;2023-05-21T13:00:41;100043.00;;;24.23;100.00